sim
Sign-in with your pilot id or email,
or register
Callsign
Passwort

Schedule Details

Flight Number: RYR2314 (2)
Departure: London Stansted Airport (EGSS) at 08:40
Arrival: Bratislava M. R. Stefanik Airport (LZIB) at 10:50
Route: Ryanair Passenger Schedule. Enter filed route here before submitting Pirep.

Weather Information
Getting current METAR information for EGSS 231950Z AUTO VRB02KT 4900 BR FEW009 11/11 Q1008
Getting current METAR information for LZIB 232000Z 05007KT CAVOK 13/10 Q1017

Schedule Frequency

Route Map